Time;durP1;ratioP1;P1;durP2;ratioP2;P2;SDS_P1;SDS_P2;PMS_P1;PMS_P2;Temp;Humidity;BMP_temperature;BMP_pressure;BME280_temperature;BME280_humidity;BME280_pressure;Samples;Min_cycle;Max_cycle;Signal;HPM_P1;HPM_P2
2023/06/19 00:03:55;;;;;;;11.10;5.38;;;;;;;;;;10310345;28;20489;-61
2023/06/19 00:08:53;;;;;;;10.80;5.07;;;;;;;;;;10311803;28;20072;-61
2023/06/19 00:13:53;;;;;;;12.95;5.82;;;;;;;;;;10308883;28;20083;-61
2023/06/19 00:18:55;;;;;;;14.23;5.60;;;;;;;;;;10312967;28;20079;-60
2023/06/19 00:23:53;;;;;;;16.48;6.47;;;;;;;;;;10306938;28;20060;-60
2023/06/19 00:28:53;;;;;;;9.90;6.50;;;;;;;;;;10309784;28;20083;-60
2023/06/19 00:33:52;;;;;;;16.48;6.07;;;;;;;;;;10308092;28;20071;-59
2023/06/19 00:38:50;;;;;;;20.95;6.28;;;;;;;;;;10310061;28;20072;-60
2023/06/19 00:43:49;;;;;;;15.25;6.60;;;;;;;;;;10311951;28;20056;-60
2023/06/19 00:48:48;;;;;;;11.05;5.65;;;;;;;;;;10309202;28;20064;-60
2023/06/19 00:53:48;;;;;;;22.30;7.70;;;;;;;;;;10307719;28;20083;-61
2023/06/19 00:58:47;;;;;;;15.88;7.47;;;;;;;;;;10323197;28;20076;-60
2023/06/19 01:03:45;;;;;;;21.52;6.28;;;;;;;;;;10309362;28;20084;-60
2023/06/19 01:08:50;;;;;;;17.60;7.03;;;;;;;;;;10308215;28;20068;-60
2023/06/19 01:13:49;;;;;;;15.63;6.72;;;;;;;;;;10306534;28;20171;-60
2023/06/19 01:18:49;;;;;;;16.05;6.93;;;;;;;;;;10307579;28;20072;-60
2023/06/19 01:23:48;;;;;;;15.85;6.70;;;;;;;;;;10304391;28;20071;-61
2023/06/19 01:28:47;;;;;;;14.82;7.68;;;;;;;;;;10311322;28;20068;-61
2023/06/19 01:33:45;;;;;;;12.23;6.85;;;;;;;;;;10307525;28;20064;-60
2023/06/19 01:38:46;;;;;;;14.40;7.20;;;;;;;;;;10307773;28;20080;-60
2023/06/19 01:43:46;;;;;;;21.80;7.63;;;;;;;;;;10309063;28;20075;-61
2023/06/19 01:48:44;;;;;;;16.42;7.45;;;;;;;;;;10307073;28;20045;-60
2023/06/19 01:53:43;;;;;;;19.45;8.07;;;;;;;;;;10306960;28;20079;-61
2023/06/19 01:58:41;;;;;;;16.55;6.95;;;;;;;;;;10307673;28;20455;-60
2023/06/19 02:03:40;;;;;;;16.00;7.30;;;;;;;;;;10306025;28;20061;-61
2023/06/19 02:08:40;;;;;;;16.63;7.30;;;;;;;;;;10306526;28;20107;-60
2023/06/19 02:13:41;;;;;;;18.75;6.93;;;;;;;;;;10313760;28;20045;-60
2023/06/19 02:18:41;;;;;;;19.45;7.63;;;;;;;;;;10317504;28;20079;-61
2023/06/19 02:23:39;;;;;;;14.15;7.53;;;;;;;;;;10311887;28;20068;-60
2023/06/19 02:28:38;;;;;;;15.23;7.88;;;;;;;;;;10309241;28;20056;-61
2023/06/19 02:33:36;;;;;;;15.13;8.55;;;;;;;;;;10311263;28;20175;-61
2023/06/19 02:38:36;;;;;;;18.92;7.13;;;;;;;;;;10331867;28;20068;-60
2023/06/19 02:43:34;;;;;;;8.65;6.93;;;;;;;;;;10316143;28;20063;-61
2023/06/19 02:48:32;;;;;;;12.52;7.57;;;;;;;;;;10315388;28;20076;-60
2023/06/19 02:53:30;;;;;;;14.38;8.05;;;;;;;;;;10312715;28;20064;-60
2023/06/19 02:58:30;;;;;;;12.85;7.97;;;;;;;;;;10314424;28;20079;-59
2023/06/19 03:03:28;;;;;;;13.68;8.27;;;;;;;;;;10313174;28;20072;-61
2023/06/19 03:08:26;;;;;;;20.95;9.55;;;;;;;;;;10313411;28;20068;-60
2023/06/19 03:13:25;;;;;;;16.15;8.20;;;;;;;;;;10307056;28;20036;-61
2023/06/19 03:18:24;;;;;;;17.35;8.25;;;;;;;;;;10312037;28;20069;-60
2023/06/19 03:23:23;;;;;;;14.10;7.70;;;;;;;;;;10312940;28;20079;-60
2023/06/19 03:28:21;;;;;;;15.32;8.50;;;;;;;;;;10328616;28;20517;-60
2023/06/19 03:33:20;;;;;;;13.20;7.65;;;;;;;;;;10314272;28;20060;-61
2023/06/19 03:38:19;;;;;;;17.98;9.85;;;;;;;;;;10311297;28;20080;-61
2023/06/19 03:43:19;;;;;;;18.27;9.32;;;;;;;;;;10330554;28;20083;-60
2023/06/19 03:48:18;;;;;;;16.58;10.20;;;;;;;;;;10304108;28;20052;-60
2023/06/19 03:53:16;;;;;;;14.65;11.35;;;;;;;;;;10314502;28;20068;-60
2023/06/19 03:58:16;;;;;;;16.10;10.20;;;;;;;;;;10310697;28;20466;-60
2023/06/19 04:03:14;;;;;;;14.05;9.73;;;;;;;;;;10304171;28;20075;-60
2023/06/19 04:08:13;;;;;;;14.60;9.88;;;;;;;;;;10308848;28;20060;-60
2023/06/19 04:13:14;;;;;;;13.52;9.25;;;;;;;;;;10313811;28;20068;-60
2023/06/19 04:18:13;;;;;;;11.07;9.80;;;;;;;;;;10308828;28;20182;-60
2023/06/19 04:23:12;;;;;;;12.50;10.48;;;;;;;;;;10304959;28;20075;-60
2023/06/19 04:28:11;;;;;;;11.70;10.55;;;;;;;;;;10310621;28;20075;-60
2023/06/19 04:33:09;;;;;;;13.10;9.93;;;;;;;;;;10310437;28;20083;-61
2023/06/19 04:38:09;;;;;;;13.27;11.48;;;;;;;;;;10309422;28;20534;-61
2023/06/19 04:43:07;;;;;;;13.43;11.65;;;;;;;;;;10308816;28;20100;-60
2023/06/19 04:48:05;;;;;;;15.68;14.13;;;;;;;;;;10308648;28;20076;-59
2023/06/19 04:53:03;;;;;;;15.98;12.10;;;;;;;;;;10309392;28;20477;-60
2023/06/19 04:58:03;;;;;;;17.55;15.05;;;;;;;;;;10309034;28;20076;-60
2023/06/19 05:03:01;;;;;;;19.73;18.02;;;;;;;;;;10308512;28;20084;-60
2023/06/19 05:08:00;;;;;;;14.60;13.27;;;;;;;;;;10306801;28;20521;-60
2023/06/19 05:12:59;;;;;;;13.90;12.70;;;;;;;;;;10309040;28;20079;-59
2023/06/19 05:17:58;;;;;;;14.57;13.38;;;;;;;;;;10306900;28;20079;-59
2023/06/19 05:22:57;;;;;;;14.82;13.40;;;;;;;;;;10309805;28;20076;-59
2023/06/19 05:27:56;;;;;;;18.88;14.00;;;;;;;;;;10308903;28;20076;-59
2023/06/19 05:32:54;;;;;;;16.67;14.63;;;;;;;;;;10304178;28;20065;-60
2023/06/19 05:37:54;;;;;;;16.65;15.10;;;;;;;;;;10304939;28;20080;-60
2023/06/19 05:42:52;;;;;;;17.80;16.10;;;;;;;;;;10300789;28;20069;-60
2023/06/19 05:47:50;;;;;;;16.48;14.98;;;;;;;;;;10302113;28;20080;-60
2023/06/19 05:52:48;;;;;;;16.38;14.68;;;;;;;;;;10314603;28;20071;-60
2023/06/19 05:57:48;;;;;;;15.77;14.38;;;;;;;;;;10306465;28;20099;-60
2023/06/19 06:02:46;;;;;;;17.40;15.70;;;;;;;;;;10325898;28;20079;-60
2023/06/19 06:07:44;;;;;;;16.13;14.73;;;;;;;;;;10306506;28;20080;-61
2023/06/19 06:12:43;;;;;;;16.95;15.07;;;;;;;;;;10314710;28;20079;-61
2023/06/19 06:17:43;;;;;;;16.70;15.07;;;;;;;;;;10308387;28;21048;-61
2023/06/19 06:22:41;;;;;;;17.70;15.85;;;;;;;;;;10312497;28;20793;-59
2023/06/19 06:27:39;;;;;;;18.00;14.30;;;;;;;;;;10313548;28;20071;-60
2023/06/19 06:32:37;;;;;;;16.15;14.48;;;;;;;;;;10316107;28;20087;-60
2023/06/19 06:37:37;;;;;;;13.82;12.40;;;;;;;;;;10316700;28;20378;-61
2023/06/19 06:42:35;;;;;;;16.23;12.55;;;;;;;;;;10314980;28;20063;-61
2023/06/19 06:47:33;;;;;;;11.20;10.10;;;;;;;;;;10316461;28;20103;-61
2023/06/19 06:52:32;;;;;;;12.70;9.57;;;;;;;;;;10317476;28;20071;-61
2023/06/19 06:57:31;;;;;;;11.20;10.25;;;;;;;;;;10315411;28;20083;-60
2023/06/19 07:02:30;;;;;;;14.38;8.57;;;;;;;;;;10318524;28;20485;-60
2023/06/19 07:07:28;;;;;;;12.80;9.02;;;;;;;;;;10315806;28;20566;-61
2023/06/19 07:12:26;;;;;;;11.30;9.43;;;;;;;;;;10317804;28;20076;-61
2023/06/19 07:17:26;;;;;;;10.13;9.13;;;;;;;;;;10317505;28;20076;-61
2023/06/19 07:22:24;;;;;;;9.55;8.65;;;;;;;;;;10317491;28;20080;-60
2023/06/19 07:27:23;;;;;;;9.07;7.75;;;;;;;;;;10314957;28;20071;-59
2023/06/19 07:32:22;;;;;;;8.50;7.70;;;;;;;;;;10317098;28;20453;-59
2023/06/19 07:37:21;;;;;;;10.90;9.07;;;;;;;;;;10316763;28;20072;-60
2023/06/19 07:42:20;;;;;;;8.80;8.02;;;;;;;;;;10315822;28;20071;-60
2023/06/19 07:47:20;;;;;;;12.05;8.05;;;;;;;;;;10314580;28;20072;-60
2023/06/19 07:52:18;;;;;;;9.13;7.53;;;;;;;;;;10314311;28;20075;-60
2023/06/19 07:57:18;;;;;;;9.95;7.65;;;;;;;;;;10313733;28;20090;-60
2023/06/19 08:02:16;;;;;;;9.13;7.50;;;;;;;;;;10316012;28;20083;-60
2023/06/19 08:07:14;;;;;;;8.98;7.20;;;;;;;;;;10315533;28;20080;-61
2023/06/19 08:12:12;;;;;;;12.10;6.85;;;;;;;;;;10315194;28;20071;-62
2023/06/19 08:17:12;;;;;;;9.15;7.22;;;;;;;;;;10314090;28;20060;-61
2023/06/19 08:22:10;;;;;;;15.20;8.60;;;;;;;;;;10312879;28;20084;-60
2023/06/19 08:27:08;;;;;;;8.55;7.85;;;;;;;;;;10314860;28;20091;-60
2023/06/19 08:32:09;;;;;;;10.85;9.73;;;;;;;;;;10314342;28;20079;-61
2023/06/19 08:37:08;;;;;;;11.27;9.48;;;;;;;;;;10312654;28;20566;-60
2023/06/19 08:42:07;;;;;;;12.90;10.13;;;;;;;;;;10310565;28;20060;-60
2023/06/19 08:47:05;;;;;;;11.30;10.30;;;;;;;;;;10312293;28;20076;-60
2023/06/19 08:52:04;;;;;;;14.02;12.32;;;;;;;;;;10314771;28;20082;-60
2023/06/19 08:57:04;;;;;;;10.82;9.73;;;;;;;;;;10314163;28;20072;-60
2023/06/19 09:02:02;;;;;;;13.70;12.13;;;;;;;;;;10312226;28;20068;-60
2023/06/19 09:07:03;;;;;;;10.38;9.38;;;;;;;;;;10313852;28;20076;-60
2023/06/19 09:12:23;;;;;;;10.43;9.52;;;;;;;;;;10313252;28;20087;-62
2023/06/19 09:17:30;;;;;;;10.40;9.27;;;;;;;;;;10311710;28;20080;-60
2023/06/19 09:22:35;;;;;;;10.07;9.05;;;;;;;;;;10311108;28;20082;-60
2023/06/19 09:27:35;;;;;;;8.68;7.78;;;;;;;;;;10312773;28;20268;-60
2023/06/19 09:32:35;;;;;;;8.18;7.22;;;;;;;;;;10313751;28;20100;-60
2023/06/19 09:37:33;;;;;;;12.10;10.57;;;;;;;;;;10313722;28;20071;-61
2023/06/19 09:42:36;;;;;;;12.02;9.95;;;;;;;;;;10327402;28;20055;-60
2023/06/19 09:47:36;;;;;;;7.57;6.28;;;;;;;;;;10311866;28;20573;-61
2023/06/19 09:52:35;;;;;;;6.65;4.55;;;;;;;;;;10313550;28;20489;-60
2023/06/19 09:57:39;;;;;;;5.05;4.65;;;;;;;;;;10310297;28;20178;-60
2023/06/19 10:02:38;;;;;;;5.72;4.93;;;;;;;;;;10312552;28;20458;-60
2023/06/19 10:07:36;;;;;;;9.48;4.90;;;;;;;;;;10313030;28;20087;-60
2023/06/19 10:12:40;;;;;;;5.53;4.97;;;;;;;;;;10312942;28;20080;-60
2023/06/19 10:17:38;;;;;;;4.78;4.00;;;;;;;;;;10312080;28;20071;-61
2023/06/19 10:22:36;;;;;;;6.63;5.20;;;;;;;;;;10312257;28;20064;-60
2023/06/19 10:27:38;;;;;;;4.35;3.90;;;;;;;;;;10312473;28;20064;-60
2023/06/19 10:32:37;;;;;;;6.40;3.67;;;;;;;;;;10315379;28;20066;-60
2023/06/19 10:37:36;;;;;;;8.55;4.65;;;;;;;;;;10319873;28;20072;-60
2023/06/19 10:42:34;;;;;;;12.93;4.25;;;;;;;;;;10319174;28;20083;-61
2023/06/19 10:47:32;;;;;;;6.18;4.22;;;;;;;;;;10319194;28;20072;-60
2023/06/19 10:52:32;;;;;;;7.90;5.47;;;;;;;;;;10319074;28;20091;-60
2023/06/19 10:57:30;;;;;;;9.27;6.97;;;;;;;;;;10316120;28;20063;-60
2023/06/19 11:02:29;;;;;;;7.20;6.57;;;;;;;;;;10315804;28;20470;-60
2023/06/19 11:07:28;;;;;;;6.68;4.70;;;;;;;;;;10318727;28;20092;-60
2023/06/19 11:12:27;;;;;;;6.43;5.82;;;;;;;;;;10318281;28;20080;-61
2023/06/19 11:17:25;;;;;;;7.07;5.43;;;;;;;;;;10317427;28;20064;-60
2023/06/19 11:22:24;;;;;;;4.40;4.00;;;;;;;;;;10302837;28;20124;-61
2023/06/19 11:27:27;;;;;;;4.82;3.90;;;;;;;;;;10314829;28;20067;-61
2023/06/19 11:32:31;;;;;;;5.18;4.22;;;;;;;;;;10315176;28;20076;-61
2023/06/19 11:37:30;;;;;;;14.25;5.82;;;;;;;;;;10314847;28;20060;-61
2023/06/19 11:42:29;;;;;;;7.45;4.30;;;;;;;;;;10316065;28;20096;-60
2023/06/19 11:47:30;;;;;;;6.90;3.90;;;;;;;;;;10316556;28;20523;-60
2023/06/19 11:52:29;;;;;;;4.50;4.10;;;;;;;;;;10316423;28;20087;-60
2023/06/19 11:57:28;;;;;;;5.70;4.35;;;;;;;;;;10314940;28;20505;-61
2023/06/19 12:02:26;;;;;;;5.15;4.63;;;;;;;;;;10315507;28;20095;-60
2023/06/19 12:07:26;;;;;;;8.15;5.20;;;;;;;;;;10314940;28;20532;-60
2023/06/19 12:12:25;;;;;;;6.53;5.93;;;;;;;;;;10314902;28;20079;-60
2023/06/19 12:17:24;;;;;;;7.25;5.85;;;;;;;;;;10315917;28;20083;-61
2023/06/19 12:22:22;;;;;;;11.65;6.95;;;;;;;;;;10315079;28;20068;-61
2023/06/19 12:27:22;;;;;;;5.72;5.32;;;;;;;;;;10312903;28;20063;-61
2023/06/19 12:32:21;;;;;;;7.53;5.05;;;;;;;;;;10314731;28;20067;-61
2023/06/19 12:37:19;;;;;;;6.22;5.38;;;;;;;;;;10314488;28;20067;-61
2023/06/19 12:42:17;;;;;;;5.38;4.88;;;;;;;;;;10314223;28;20072;-61
2023/06/19 12:47:18;;;;;;;6.43;5.63;;;;;;;;;;10314667;28;20108;-61
2023/06/19 12:52:16;;;;;;;8.98;5.35;;;;;;;;;;10312764;28;20080;-60
2023/06/19 12:57:14;;;;;;;8.25;5.35;;;;;;;;;;10313152;28;20399;-61
2023/06/19 13:02:12;;;;;;;6.00;5.45;;;;;;;;;;10313411;28;20082;-61
2023/06/19 13:07:13;;;;;;;4.75;4.20;;;;;;;;;;10314129;28;20080;-61
2023/06/19 13:12:12;;;;;;;5.15;4.68;;;;;;;;;;10297510;28;20064;-60
2023/06/19 13:17:10;;;;;;;6.32;4.13;;;;;;;;;;10309518;28;20544;-60
2023/06/19 13:22:08;;;;;;;9.07;4.15;;;;;;;;;;10309676;28;20072;-61
2023/06/19 13:27:08;;;;;;;5.82;4.68;;;;;;;;;;10307437;28;20079;-61
2023/06/19 13:32:06;;;;;;;8.52;3.78;;;;;;;;;;10307546;28;20561;-60
2023/06/19 13:37:05;;;;;;;5.30;4.65;;;;;;;;;;10311003;28;20076;-60
2023/06/19 13:42:03;;;;;;;5.32;4.22;;;;;;;;;;10301269;28;20064;-60
2023/06/19 13:47:03;;;;;;;5.00;4.55;;;;;;;;;;10308785;28;20363;-61
2023/06/19 13:52:01;;;;;;;5.25;4.85;;;;;;;;;;10310424;28;20064;-60
2023/06/19 13:56:59;;;;;;;6.00;4.43;;;;;;;;;;10308245;28;20075;-60
2023/06/19 14:01:57;;;;;;;5.50;4.97;;;;;;;;;;10307075;28;20084;-60
2023/06/19 14:06:57;;;;;;;4.93;3.75;;;;;;;;;;10304612;28;20076;-61
2023/06/19 14:11:55;;;;;;;3.88;3.50;;;;;;;;;;10312166;28;20075;-60
2023/06/19 14:16:53;;;;;;;5.22;4.38;;;;;;;;;;10307569;28;20084;-61
2023/06/19 14:21:52;;;;;;;5.80;4.47;;;;;;;;;;10316161;28;20080;-61
2023/06/19 14:26:51;;;;;;;5.55;3.75;;;;;;;;;;10311212;28;20064;-60
2023/06/19 14:31:51;;;;;;;9.07;4.30;;;;;;;;;;10308317;28;20477;-61
2023/06/19 14:36:49;;;;;;;8.15;3.90;;;;;;;;;;10303184;28;20060;-61
2023/06/19 14:41:47;;;;;;;5.47;3.65;;;;;;;;;;10314289;28;20079;-61
2023/06/19 14:46:47;;;;;;;6.18;3.78;;;;;;;;;;10316571;28;20072;-62
2023/06/19 14:51:45;;;;;;;4.70;3.50;;;;;;;;;;10312341;28;20691;-61
2023/06/19 14:56:44;;;;;;;16.63;8.70;;;;;;;;;;10313082;28;20552;-59
2023/06/19 15:01:42;;;;;;;7.53;5.72;;;;;;;;;;10314631;28;20107;-61
2023/06/19 15:06:41;;;;;;;5.22;4.45;;;;;;;;;;10317866;28;20082;-60
2023/06/19 15:11:40;;;;;;;5.75;3.33;;;;;;;;;;10315696;28;20071;-60
2023/06/19 15:16:38;;;;;;;5.43;2.90;;;;;;;;;;10311932;28;20068;-60
2023/06/19 15:21:36;;;;;;;2.22;1.80;;;;;;;;;;10312205;28;20068;-60
2023/06/19 15:26:36;;;;;;;5.05;2.80;;;;;;;;;;10313364;28;20080;-60
2023/06/19 15:31:37;;;;;;;2.10;1.90;;;;;;;;;;10316059;28;20064;-60
2023/06/19 15:36:36;;;;;;;4.07;2.05;;;;;;;;;;10316540;28;20083;-59
2023/06/19 15:41:53;;;;;;;2.55;2.05;;;;;;;;;;10311241;28;20084;-60
2023/06/19 15:46:51;;;;;;;3.65;1.40;;;;;;;;;;10311972;28;20076;-60
2023/06/19 15:51:50;;;;;;;1.70;1.50;;;;;;;;;;10316052;28;20083;-60
2023/06/19 15:56:48;;;;;;;1.90;1.80;;;;;;;;;;10310419;28;20071;-60
2023/06/19 16:01:50;;;;;;;3.13;1.60;;;;;;;;;;10309747;28;20513;-60
2023/06/19 16:06:48;;;;;;;2.20;1.92;;;;;;;;;;10301110;28;20092;-61
2023/06/19 16:11:48;;;;;;;1.80;1.70;;;;;;;;;;10308655;28;20072;-60
2023/06/19 16:16:46;;;;;;;2.05;1.90;;;;;;;;;;10308830;28;20497;-61
2023/06/19 16:21:48;;;;;;;7.43;5.10;;;;;;;;;;10303782;28;20080;-60
2023/06/19 16:26:46;;;;;;;17.27;11.90;;;;;;;;;;10300078;28;20068;-60
2023/06/19 16:31:45;;;;;;;12.93;7.82;;;;;;;;;;10303533;28;20426;-60
2023/06/19 16:36:55;;;;;;;13.00;11.00;;;;;;;;;;10301761;28;20498;-61
2023/06/19 16:41:53;;;;;;;24.85;21.27;;;;;;;;;;10300523;28;20075;-60
2023/06/19 16:46:51;;;;;;;9.38;8.48;;;;;;;;;;10303451;28;20064;-61
2023/06/19 16:51:49;;;;;;;2.92;2.72;;;;;;;;;;10310775;28;20044;-60
2023/06/19 16:56:49;;;;;;;8.27;4.85;;;;;;;;;;10313966;28;20072;-60
2023/06/19 17:01:47;;;;;;;11.35;6.07;;;;;;;;;;10310996;28;20064;-60
2023/06/19 17:06:45;;;;;;;40.08;36.03;;;;;;;;;;10298925;28;20084;-60
2023/06/19 17:11:44;;;;;;;8.60;7.00;;;;;;;;;;10300382;28;21042;-60
2023/06/19 17:16:43;;;;;;;4.90;3.97;;;;;;;;;;10297737;28;20067;-59
2023/06/19 17:21:41;;;;;;;3.05;2.38;;;;;;;;;;10302982;28;20552;-60
2023/06/19 17:26:40;;;;;;;7.15;2.85;;;;;;;;;;10301949;28;20072;-59
2023/06/19 17:31:38;;;;;;;3.90;3.22;;;;;;;;;;10298325;28;20474;-60
2023/06/19 17:36:39;;;;;;;4.88;3.28;;;;;;;;;;10302911;28;20079;-60
2023/06/19 17:41:37;;;;;;;4.53;3.08;;;;;;;;;;10311373;28;20064;-59
2023/06/19 17:46:36;;;;;;;3.55;2.70;;;;;;;;;;10318040;28;20087;-60
2023/06/19 17:51:34;;;;;;;3.63;2.92;;;;;;;;;;10311994;28;20080;-61
2023/06/19 17:56:37;;;;;;;2.60;2.40;;;;;;;;;;10304723;28;20064;-61
2023/06/19 18:01:35;;;;;;;6.03;3.10;;;;;;;;;;10317267;28;20076;-60
2023/06/19 18:06:33;;;;;;;3.72;3.38;;;;;;;;;;10310852;28;20072;-61
2023/06/19 18:11:31;;;;;;;2.90;2.70;;;;;;;;;;10306580;28;20457;-61
2023/06/19 18:16:33;;;;;;;5.05;3.10;;;;;;;;;;10312072;28;20049;-60
2023/06/19 18:21:35;;;;;;;2.80;2.60;;;;;;;;;;10304595;28;20087;-60
2023/06/19 18:26:33;;;;;;;3.35;3.05;;;;;;;;;;10314908;28;20064;-61
2023/06/19 18:31:33;;;;;;;4.20;2.95;;;;;;;;;;10311580;28;20064;-61
2023/06/19 18:36:31;;;;;;;4.05;2.53;;;;;;;;;;10312852;28;20506;-60
2023/06/19 18:41:29;;;;;;;4.93;3.10;;;;;;;;;;10312477;28;20076;-59
2023/06/19 18:46:27;;;;;;;8.82;3.08;;;;;;;;;;10313120;28;20083;-59
2023/06/19 18:51:27;;;;;;;4.43;2.75;;;;;;;;;;10300529;28;20064;-59
2023/06/19 18:56:25;;;;;;;3.72;3.13;;;;;;;;;;10306758;28;20060;-59
2023/06/19 19:01:23;;;;;;;4.47;3.30;;;;;;;;;;10308018;28;20087;-58
2023/06/19 19:06:21;;;;;;;11.38;4.18;;;;;;;;;;10309677;28;20581;-60
2023/06/19 19:11:21;;;;;;;3.65;2.95;;;;;;;;;;10306687;28;20068;-61
2023/06/19 19:16:19;;;;;;;4.03;3.28;;;;;;;;;;10307921;28;20064;-60
2023/06/19 19:21:17;;;;;;;5.70;2.80;;;;;;;;;;10306133;28;20490;-59
2023/06/19 19:26:19;;;;;;;4.35;2.65;;;;;;;;;;10310665;28;20075;-61
2023/06/19 19:31:18;;;;;;;5.55;2.50;;;;;;;;;;10312876;28;20072;-59
2023/06/19 19:36:16;;;;;;;3.28;2.97;;;;;;;;;;10310250;28;20067;-60
2023/06/19 19:41:14;;;;;;;9.05;2.92;;;;;;;;;;10304842;28;20084;-60
2023/06/19 19:46:13;;;;;;;5.13;3.00;;;;;;;;;;10301422;28;20167;-60
2023/06/19 19:51:12;;;;;;;7.60;3.40;;;;;;;;;;10302893;28;20064;-60
2023/06/19 19:56:10;;;;;;;3.38;2.47;;;;;;;;;;10314491;28;20553;-59
2023/06/19 20:01:09;;;;;;;5.65;3.15;;;;;;;;;;10308785;28;20079;-60
2023/06/19 20:06:07;;;;;;;6.80;4.03;;;;;;;;;;10320834;28;20093;-59
2023/06/19 20:11:06;;;;;;;7.28;3.35;;;;;;;;;;10308297;28;20111;-60
2023/06/19 20:16:05;;;;;;;5.38;3.65;;;;;;;;;;10309392;28;20524;-61
2023/06/19 20:21:03;;;;;;;6.85;3.72;;;;;;;;;;10309335;28;20078;-61
2023/06/19 20:26:01;;;;;;;4.28;3.50;;;;;;;;;;10310132;28;20139;-61
2023/06/19 20:31:01;;;;;;;5.05;3.88;;;;;;;;;;10308536;28;20641;-60
2023/06/19 20:36:00;;;;;;;3.95;3.60;;;;;;;;;;10311990;28;20056;-60
2023/06/19 20:41:00;;;;;;;6.53;3.90;;;;;;;;;;10311254;28;20080;-60
2023/06/19 20:46:00;;;;;;;4.60;4.20;;;;;;;;;;10312181;28;20084;-60
2023/06/19 20:51:00;;;;;;;7.15;4.93;;;;;;;;;;10311295;28;20075;-60
2023/06/19 20:55:58;;;;;;;6.45;4.55;;;;;;;;;;10311187;28;20071;-60
2023/06/19 21:00:56;;;;;;;10.43;5.88;;;;;;;;;;10312174;28;20457;-60
2023/06/19 21:05:56;;;;;;;5.63;4.85;;;;;;;;;;10311456;28;20098;-61
2023/06/19 21:10:55;;;;;;;7.43;5.00;;;;;;;;;;10312608;28;20082;-59
2023/06/19 21:15:54;;;;;;;8.52;4.38;;;;;;;;;;10310762;28;20087;-58
2023/06/19 21:20:55;;;;;;;4.88;4.10;;;;;;;;;;10300625;28;20064;-60
2023/06/19 21:25:54;;;;;;;7.40;4.10;;;;;;;;;;10309342;28;20075;-60
2023/06/19 21:30:53;;;;;;;7.68;4.13;;;;;;;;;;10311274;28;20509;-60
2023/06/19 21:35:51;;;;;;;6.20;3.65;;;;;;;;;;10310560;28;20532;-61
2023/06/19 21:40:50;;;;;;;8.50;4.10;;;;;;;;;;10312851;28;20064;-60
2023/06/19 21:45:48;;;;;;;6.88;4.22;;;;;;;;;;10310801;28;20083;-60
2023/06/19 21:50:48;;;;;;;8.75;4.70;;;;;;;;;;10310931;28;20068;-60
2023/06/19 21:55:46;;;;;;;8.30;4.45;;;;;;;;;;10308830;28;20072;-60
2023/06/19 22:00:44;;;;;;;8.80;4.18;;;;;;;;;;10311068;28;20467;-60
2023/06/19 22:05:42;;;;;;;7.07;3.97;;;;;;;;;;10294152;28;20532;-60
2023/06/19 22:10:42;;;;;;;9.13;4.00;;;;;;;;;;10310750;28;20536;-61
2023/06/19 22:15:40;;;;;;;10.18;3.75;;;;;;;;;;10307556;28;20079;-60
2023/06/19 22:20:38;;;;;;;7.15;4.30;;;;;;;;;;10306186;28;20072;-61
2023/06/19 22:25:36;;;;;;;4.57;4.18;;;;;;;;;;10304688;28;20127;-60
2023/06/19 22:30:36;;;;;;;7.95;4.28;;;;;;;;;;10314653;28;20541;-61
2023/06/19 22:35:34;;;;;;;8.32;4.15;;;;;;;;;;10314559;28;20060;-59
2023/06/19 22:40:32;;;;;;;7.82;4.38;;;;;;;;;;10314091;28;20076;-61
2023/06/19 22:45:30;;;;;;;5.40;4.05;;;;;;;;;;10315558;28;20068;-61
2023/06/19 22:50:30;;;;;;;4.63;3.67;;;;;;;;;;10312170;28;20075;-61
2023/06/19 22:55:28;;;;;;;9.18;3.75;;;;;;;;;;10313952;28;20517;-61
2023/06/19 23:00:27;;;;;;;8.23;3.63;;;;;;;;;;10316862;28;20691;-59
2023/06/19 23:05:25;;;;;;;5.65;4.18;;;;;;;;;;10316389;28;20080;-60
2023/06/19 23:10:25;;;;;;;8.50;4.68;;;;;;;;;;10312420;28;20092;-60
2023/06/19 23:15:28;;;;;;;8.80;4.13;;;;;;;;;;10311142;28;20067;-60
2023/06/19 23:20:26;;;;;;;8.32;4.25;;;;;;;;;;10314224;28;20068;-60
2023/06/19 23:25:26;;;;;;;8.57;4.10;;;;;;;;;;10314142;28;20076;-61
2023/06/19 23:30:26;;;;;;;9.30;4.20;;;;;;;;;;10311329;28;20068;-61
2023/06/19 23:35:24;;;;;;;8.07;4.05;;;;;;;;;;10313696;28;20107;-61
2023/06/19 23:40:23;;;;;;;8.20;5.72;;;;;;;;;;10308420;28;20160;-60
2023/06/19 23:45:26;;;;;;;7.30;6.10;;;;;;;;;;10313066;28;20063;-60
2023/06/19 23:50:24;;;;;;;11.63;6.20;;;;;;;;;;10311340;28;20064;-60
2023/06/19 23:55:23;;;;;;;11.20;6.38;;;;;;;;;;10313780;28;20465;-60
